Time;durP1;ratioP1;P1;durP2;ratioP2;P2;SDS_P1;SDS_P2;PMS_P1;PMS_P2;Temp;Humidity;BMP_temperature;BMP_pressure;BME280_temperature;BME280_humidity;BME280_pressure;Samples;Min_cycle;Max_cycle;Signal;HPM_P1;HPM_P2
2024/01/25 00:01:14;;;;;;;20.75;3.67;;;;;;;9.09;100.00;101518.25;5020313;28;20045;-73
2024/01/25 00:03:43;;;;;;;24.90;4.03;;;;;;;9.08;100.00;101514.72;5024398;28;20045;-74
2024/01/25 00:06:11;;;;;;;32.05;4.93;;;;;;;9.06;100.00;101510.38;5041989;28;20057;-73
2024/01/25 00:08:42;;;;;;;25.67;3.83;;;;;;;9.05;100.00;101519.22;5045931;28;20042;-73
2024/01/25 00:11:11;;;;;;;27.13;4.03;;;;;;;8.98;100.00;101505.25;5024301;28;20047;-74
2024/01/25 00:13:39;;;;;;;23.48;4.25;;;;;;;9.00;100.00;101499.94;5030664;28;20037;-73
2024/01/25 00:16:07;;;;;;;23.35;4.60;;;;;;;9.10;100.00;101507.66;5031593;28;20053;-73
2024/01/25 00:18:39;;;;;;;24.13;4.10;;;;;;;9.08;100.00;101500.66;5024786;28;20037;-73
2024/01/25 00:21:09;;;;;;;27.30;4.05;;;;;;;9.04;100.00;101494.56;5012657;28;20037;-73
2024/01/25 00:23:40;;;;;;;24.10;4.05;;;;;;;8.97;100.00;101486.84;5032439;28;20508;-73
2024/01/25 00:26:08;;;;;;;19.27;3.75;;;;;;;9.02;100.00;101493.72;5044031;28;20068;-75
2024/01/25 00:28:38;;;;;;;24.77;4.60;;;;;;;8.97;100.00;101500.03;5041780;28;20037;-75
2024/01/25 00:31:07;;;;;;;;;;;;;;;8.96;100.00;101514.16;5035591;28;20775;-72
2024/01/25 00:33:36;;;;;;;20.83;3.80;;;;;;;8.95;100.00;101501.84;5032085;28;19921;-74
2024/01/25 00:36:09;;;;;;;28.95;4.55;;;;;;;8.95;100.00;101507.13;5051360;28;20049;-74
2024/01/25 00:38:40;;;;;;;28.27;5.03;;;;;;;8.92;100.00;101502.78;5035477;28;20049;-73
2024/01/25 00:41:11;;;;;;;22.63;4.20;;;;;;;8.96;100.00;101499.16;5015422;28;20131;-73
2024/01/25 00:43:41;;;;;;;24.05;3.70;;;;;;;9.03;100.00;101498.09;5032693;28;20102;-73
2024/01/25 00:46:10;;;;;;;22.88;4.25;;;;;;;9.04;100.00;101497.22;5039244;28;20133;-73
2024/01/25 00:48:39;;;;;;;24.40;4.53;;;;;;;9.06;100.00;101489.25;5030365;28;20045;-74
2024/01/25 00:51:15;;;;;;;24.08;3.67;;;;;;;9.06;100.00;101495.41;5026497;28;20041;-74
2024/01/25 00:53:44;;;;;;;26.65;4.72;;;;;;;9.09;100.00;101502.41;5028869;28;20132;-73
2024/01/25 00:56:13;;;;;;;21.55;3.47;;;;;;;9.09;100.00;101502.41;5034033;28;20041;-74
2024/01/25 00:58:45;;;;;;;24.75;3.60;;;;;;;9.15;100.00;101513.66;5032527;28;20127;-74
2024/01/25 01:01:17;;;;;;;27.35;4.43;;;;;;;9.13;100.00;101509.31;5029224;28;20202;-74
2024/01/25 01:03:52;;;;;;;26.88;4.65;;;;;;;9.14;100.00;101519.84;5050456;28;20049;-75
2024/01/25 01:06:21;;;;;;;28.98;4.90;;;;;;;9.03;100.00;101521.88;5044861;28;20038;-74
2024/01/25 01:08:51;;;;;;;23.98;4.25;;;;;;;9.00;100.00;101529.00;5036911;28;20056;-73
2024/01/25 01:11:22;;;;;;;29.00;4.63;;;;;;;8.96;100.00;101522.06;5025547;28;20049;-74
2024/01/25 01:13:54;;;;;;;24.73;4.55;;;;;;;9.01;100.00;101530.75;5002918;28;20113;-73
2024/01/25 01:16:24;;;;;;;23.70;3.75;;;;;;;9.07;100.00;101533.25;5032422;28;20034;-73
2024/01/25 01:18:54;;;;;;;24.67;4.23;;;;;;;9.10;100.00;101536.72;5037778;28;20128;-74
2024/01/25 01:21:23;;;;;;;18.17;3.58;;;;;;;9.00;100.00;101523.72;5037058;28;20580;-74
2024/01/25 01:23:52;;;;;;;26.42;4.57;;;;;;;9.01;100.00;101526.34;5025412;28;20057;-73
2024/01/25 01:26:22;;;;;;;;;;;;;;;9.00;100.00;101535.16;5049205;28;20050;-74
2024/01/25 01:28:54;;;;;;;25.23;5.35;;;;;;;8.97;100.00;101539.66;5032654;28;19921;-74
2024/01/25 01:31:24;;;;;;;24.38;4.07;;;;;;;8.87;100.00;101519.63;5020025;28;20135;-73
2024/01/25 01:33:52;;;;;;;29.43;4.57;;;;;;;8.93;100.00;101530.94;5052456;28;20145;-73
2024/01/25 01:36:22;;;;;;;31.52;4.63;;;;;;;8.93;100.00;101536.22;5033553;28;20511;-74
2024/01/25 01:38:53;;;;;;;23.17;3.88;;;;;;;8.88;100.00;101538.06;5048475;28;20053;-73
2024/01/25 01:41:27;;;;;;;23.08;3.92;;;;;;;8.81;100.00;101528.56;5006664;28;20045;-75
2024/01/25 01:43:56;;;;;;;24.15;4.70;;;;;;;8.81;100.00;101522.41;5034149;28;20185;-73
2024/01/25 01:46:36;;;;;;;20.30;4.30;;;;;;;8.76;100.00;101526.03;5015879;28;20502;-75
2024/01/25 01:49:09;;;;;;;21.20;3.78;;;;;;;8.72;100.00;101526.97;5050199;28;20090;-75
2024/01/25 01:51:41;;;;;;;23.38;3.83;;;;;;;8.71;100.00;101524.38;5006409;28;20794;-74
2024/01/25 01:54:10;;;;;;;21.50;4.10;;;;;;;8.69;100.00;101528.81;5047246;28;20316;-73
2024/01/25 01:56:39;;;;;;;29.20;4.18;;;;;;;8.62;100.00;101530.72;5017138;28;20049;-73
2024/01/25 01:59:11;;;;;;;23.13;3.53;;;;;;;8.66;100.00;101536.78;5029680;28;20049;-74
2024/01/25 02:01:41;;;;;;;22.35;3.35;;;;;;;8.65;100.00;101541.22;5033520;28;20042;-75
2024/01/25 02:04:13;;;;;;;27.13;4.03;;;;;;;8.60;100.00;101529.88;5028046;28;20517;-73
2024/01/25 02:06:43;;;;;;;27.98;4.10;;;;;;;8.61;100.00;101536.03;5026905;28;20043;-73
2024/01/25 02:09:12;;;;;;;23.90;3.72;;;;;;;8.62;100.00;101536.00;5036757;28;20038;-73
2024/01/25 02:11:46;;;;;;;22.25;3.45;;;;;;;8.62;100.00;101545.69;5035330;28;20057;-74
2024/01/25 02:14:15;;;;;;;25.83;4.03;;;;;;;8.59;100.00;101540.47;5037245;28;20136;-72
2024/01/25 02:16:53;;;;;;;28.58;4.57;;;;;;;8.54;100.00;101537.91;5032868;28;20049;-73
2024/01/25 02:19:24;;;;;;;20.48;3.47;;;;;;;8.41;100.00;101525.88;5032670;28;20073;-73
2024/01/25 02:21:57;;;;;;;24.77;4.18;;;;;;;8.34;100.00;101521.63;5022815;28;20049;-73
2024/01/25 02:24:26;;;;;;;19.30;4.30;;;;;;;8.32;100.00;101529.56;5038431;28;20045;-73
2024/01/25 02:26:54;;;;;;;25.02;4.07;;;;;;;8.20;100.00;101524.47;5029081;28;20124;-73
2024/01/25 02:29:23;;;;;;;24.83;4.00;;;;;;;8.19;100.00;101542.97;5025027;28;20041;-73
2024/01/25 02:31:54;;;;;;;28.90;4.35;;;;;;;8.08;100.00;101533.50;5046097;28;20049;-73
2024/01/25 02:34:23;;;;;;;23.08;3.50;;;;;;;8.13;100.00;101549.25;5037935;28;20572;-74
2024/01/25 02:36:53;;;;;;;26.30;4.15;;;;;;;8.14;100.00;101547.50;5032189;28;20045;-73
2024/01/25 02:39:21;;;;;;;24.92;4.70;;;;;;;8.16;100.00;101546.56;5036965;28;20548;-73
2024/01/25 02:41:53;;;;;;;24.65;4.40;;;;;;;8.06;100.00;101522.09;5032121;28;20071;-74
2024/01/25 02:44:22;;;;;;;27.52;4.45;;;;;;;8.16;100.00;101535.16;5031787;28;20050;-75
2024/01/25 02:46:53;;;;;;;26.95;4.68;;;;;;;8.19;100.00;101538.56;5020842;28;20217;-74
2024/01/25 02:49:23;;;;;;;29.23;3.97;;;;;;;8.19;100.00;101538.56;5047550;28;20527;-72
2024/01/25 02:51:55;;;;;;;27.70;4.57;;;;;;;8.18;100.00;101555.34;5027382;28;20117;-73
2024/01/25 02:54:26;;;;;;;31.60;4.50;;;;;;;8.09;100.00;101540.53;5029280;28;20068;-75
2024/01/25 02:56:55;;;;;;;30.38;4.20;;;;;;;8.14;100.00;101544.84;5051946;28;20073;-74
2024/01/25 02:59:23;;;;;;;29.23;4.10;;;;;;;8.17;100.00;101548.31;5039945;28;20052;-73
2024/01/25 03:01:54;;;;;;;28.08;5.05;;;;;;;8.14;100.00;101547.50;5043340;28;20057;-73
2024/01/25 03:04:23;;;;;;;27.33;4.05;;;;;;;8.10;100.00;101542.25;5039619;28;20079;-73
2024/01/25 03:06:53;;;;;;;23.92;4.30;;;;;;;8.10;100.00;101549.31;5051219;28;20045;-73
2024/01/25 03:09:23;;;;;;;21.50;4.00;;;;;;;8.04;100.00;101555.56;5027820;28;20045;-73
2024/01/25 03:11:52;;;;;;;20.47;3.73;;;;;;;8.03;100.00;101545.91;5038041;28;20129;-73
2024/01/25 03:14:22;;;;;;;31.80;4.53;;;;;;;8.00;100.00;101548.63;5013231;28;20053;-72
2024/01/25 03:16:51;;;;;;;;;;;;;;;8.05;100.00;101562.56;5042829;28;20053;-72
2024/01/25 03:19:20;;;;;;;24.27;3.55;;;;;;;7.99;100.00;101546.88;5028697;28;22730;-73
2024/01/25 03:21:50;;;;;;;25.02;4.28;;;;;;;8.05;100.00;101556.44;5020412;28;20051;-74
2024/01/25 03:24:20;;;;;;;25.67;4.60;;;;;;;8.06;100.00;101577.50;5019793;28;20052;-73
2024/01/25 03:26:48;;;;;;;23.73;3.97;;;;;;;7.97;100.00;101576.81;5032743;28;20038;-73
2024/01/25 03:29:23;;;;;;;26.02;3.63;;;;;;;7.91;100.00;101564.59;5015968;28;20072;-75
2024/01/25 03:31:51;;;;;;;25.25;4.00;;;;;;;7.86;100.00;101574.38;5002780;28;20574;-73
2024/01/25 03:34:22;;;;;;;26.15;4.95;;;;;;;7.90;100.00;101591.84;5017597;28;20046;-73
2024/01/25 03:36:54;;;;;;;31.08;4.32;;;;;;;7.94;100.00;101590.91;5043116;28;20370;-72
2024/01/25 03:39:23;;;;;;;28.33;4.55;;;;;;;7.93;100.00;101597.09;5022037;28;20049;-73
2024/01/25 03:41:54;;;;;;;23.58;3.92;;;;;;;7.95;100.00;101599.69;5023323;28;20044;-72
2024/01/25 03:44:26;;;;;;;27.65;4.65;;;;;;;7.75;100.00;101581.56;5028764;28;20132;-73
2024/01/25 03:46:57;;;;;;;32.55;4.35;;;;;;;7.88;100.00;101612.09;5034839;28;20580;-74
2024/01/25 03:49:25;;;;;;;23.05;3.58;;;;;;;7.77;100.00;101592.97;5030355;28;20038;-74
2024/01/25 03:51:54;;;;;;;26.48;4.28;;;;;;;7.76;100.00;101583.31;5026249;28;20387;-74
2024/01/25 03:54:23;;;;;;;23.80;4.65;;;;;;;7.84;100.00;101607.81;5026948;28;20449;-76
2024/01/25 03:56:54;;;;;;;26.65;4.25;;;;;;;7.90;100.00;101615.59;5035860;28;20475;-75
2024/01/25 03:59:23;;;;;;;26.70;4.50;;;;;;;7.91;100.00;101614.69;5044332;28;20042;-73
2024/01/25 04:01:52;;;;;;;25.17;4.20;;;;;;;7.93;100.00;101605.00;5041997;28;20099;-74
2024/01/25 04:04:20;;;;;;;29.50;4.90;;;;;;;7.87;100.00;101607.72;5035834;28;20140;-74
2024/01/25 04:06:48;;;;;;;22.40;4.32;;;;;;;7.85;100.00;101599.00;5035966;28;20041;-74
2024/01/25 04:09:16;;;;;;;25.27;4.88;;;;;;;7.81;100.00;101601.69;5031457;28;20119;-75
2024/01/25 04:11:45;;;;;;;23.52;4.13;;;;;;;7.75;100.00;101600.91;5029521;28;20502;-74
2024/01/25 04:14:15;;;;;;;30.77;4.35;;;;;;;7.71;100.00;101606.25;5031535;28;20068;-72
2024/01/25 04:16:46;;;;;;;28.77;4.35;;;;;;;7.61;100.00;101599.38;5033801;28;20489;-72
2024/01/25 04:19:16;;;;;;;30.40;4.40;;;;;;;7.60;100.00;101597.63;5043049;28;20041;-74
2024/01/25 04:21:44;;;;;;;30.90;4.55;;;;;;;7.55;100.00;101605.63;5020693;28;20472;-74
2024/01/25 04:24:15;;;;;;;28.33;4.38;;;;;;;7.54;100.00;101619.69;5031805;28;20042;-74
2024/01/25 04:26:43;;;;;;;23.08;4.30;;;;;;;7.54;100.00;101610.94;5028299;28;20048;-74
2024/01/25 04:29:12;;;;;;;34.30;5.05;;;;;;;7.58;100.00;101604.69;5031161;28;20041;-74
2024/01/25 04:31:46;;;;;;;30.58;3.97;;;;;;;7.60;100.00;101603.78;5029172;28;20041;-73
2024/01/25 04:34:17;;;;;;;31.05;4.75;;;;;;;7.69;100.00;101610.69;5049071;28;20135;-73
2024/01/25 04:36:47;;;;;;;30.02;4.45;;;;;;;7.54;100.00;101588.06;5030085;28;20049;-73
2024/01/25 04:39:16;;;;;;;28.02;4.45;;;;;;;7.64;100.00;101601.97;5035841;28;20132;-73
2024/01/25 04:41:48;;;;;;;26.38;4.53;;;;;;;7.64;100.00;101615.16;5029315;28;20042;-74
2024/01/25 04:44:18;;;;;;;29.45;5.43;;;;;;;7.53;100.00;101606.53;5047430;28;20164;-72
2024/01/25 04:46:47;;;;;;;31.40;3.95;;;;;;;7.59;100.00;101622.25;5023695;28;20782;-72
2024/01/25 04:49:22;;;;;;;30.48;3.67;;;;;;;7.53;100.00;101617.97;5008649;28;20116;-73
2024/01/25 04:51:52;;;;;;;28.55;4.47;;;;;;;7.45;100.00;101614.56;5025180;28;20099;-73
2024/01/25 04:54:22;;;;;;;23.55;3.78;;;;;;;7.46;100.00;101621.56;5032670;28;20136;-74
2024/01/25 04:56:51;;;;;;;29.58;4.97;;;;;;;7.46;100.00;101626.84;5037383;28;20108;-73
2024/01/25 04:59:20;;;;;;;26.17;4.55;;;;;;;7.38;100.00;101623.47;5034231;28;20057;-75
2024/01/25 05:01:48;;;;;;;32.28;4.88;;;;;;;7.42;100.00;101629.53;5043002;28;20049;-73
2024/01/25 05:04:18;;;;;;;30.73;4.95;;;;;;;7.47;100.00;101648.78;5031699;28;20056;-74
2024/01/25 05:06:50;;;;;;;22.52;4.35;;;;;;;7.43;100.00;101644.44;5028893;28;20052;-75
2024/01/25 05:09:18;;;;;;;28.27;4.22;;;;;;;7.51;100.00;101663.69;5038598;28;20064;-74
2024/01/25 05:11:47;;;;;;;25.98;4.05;;;;;;;7.52;100.00;101663.66;5045879;28;20041;-74
2024/01/25 05:14:15;;;;;;;31.20;4.45;;;;;;;7.53;100.00;101664.53;5033095;28;20052;-73
2024/01/25 05:16:46;;;;;;;24.40;4.38;;;;;;;7.48;100.00;101667.22;5037689;28;20045;-73
2024/01/25 05:19:14;;;;;;;27.75;5.10;;;;;;;7.40;100.00;101667.31;5051101;28;20069;-73
2024/01/25 05:21:48;;;;;;;31.25;4.78;;;;;;;7.45;100.00;101683.06;5038524;28;20064;-73
2024/01/25 05:24:16;;;;;;;29.40;4.38;;;;;;;7.44;100.00;101683.09;5030257;28;20033;-75
2024/01/25 05:26:45;;;;;;;30.88;4.88;;;;;;;7.46;100.00;101668.13;5036541;28;20069;-73
2024/01/25 05:29:17;;;;;;;32.78;4.78;;;;;;;7.49;100.00;101673.38;5043379;28;20046;-72
2024/01/25 05:31:45;;;;;;;32.67;4.85;;;;;;;7.49;100.00;101666.34;5039251;28;20042;-76
2024/01/25 05:34:13;;;;;;;28.38;5.47;;;;;;;7.48;100.00;101669.00;5037491;28;20060;-72
2024/01/25 05:36:42;;;;;;;24.80;4.63;;;;;;;7.44;100.00;101662.88;5043349;28;20044;-73
2024/01/25 05:39:15;;;;;;;29.02;5.15;;;;;;;7.38;100.00;101660.34;5039077;28;20053;-72
2024/01/25 05:41:45;;;;;;;24.88;4.38;;;;;;;7.35;100.00;101677.06;5038663;28;20053;-73
2024/01/25 05:44:14;;;;;;;22.70;4.32;;;;;;;7.31;100.00;101672.72;5043673;28;20041;-73
2024/01/25 05:46:43;;;;;;;34.15;5.00;;;;;;;7.40;100.00;101685.75;5053478;28;20061;-74
2024/01/25 05:49:14;;;;;;;28.80;5.38;;;;;;;7.46;100.00;101697.13;5043843;28;20125;-73
2024/01/25 05:51:44;;;;;;;29.10;4.97;;;;;;;7.47;100.00;101699.75;5040445;28;20416;-74
2024/01/25 05:54:15;;;;;;;25.48;5.20;;;;;;;7.48;100.00;101693.56;5028773;28;20064;-74
2024/01/25 05:56:43;;;;;;;26.67;4.55;;;;;;;7.49;100.00;101694.44;5055734;28;20049;-74
2024/01/25 05:59:11;;;;;;;24.20;4.55;;;;;;;7.50;100.00;101697.06;5041178;28;20052;-74
2024/01/25 06:01:39;;;;;;;30.77;5.55;;;;;;;7.45;100.00;101688.34;5044662;28;20046;-74
2024/01/25 06:04:08;;;;;;;25.52;5.15;;;;;;;7.38;100.00;101687.56;5052089;28;20045;-73
2024/01/25 06:06:41;;;;;;;29.00;5.47;;;;;;;7.33;100.00;101685.88;5056095;28;20069;-73
2024/01/25 06:09:10;;;;;;;26.35;5.03;;;;;;;7.32;100.00;101692.03;5043213;28;20735;-73
2024/01/25 06:11:42;;;;;;;;;;;;;;;7.28;100.00;101696.47;5036141;28;20343;-72
2024/01/25 06:14:12;;;;;;;29.67;5.55;;;;;;;7.24;100.00;101702.66;5032730;28;19987;-73
2024/01/25 06:16:41;;;;;;;33.80;4.93;;;;;;;7.20;100.00;101700.97;5030364;28;20044;-75
2024/01/25 06:19:09;;;;;;;35.83;5.70;;;;;;;7.18;100.00;101705.38;5021590;28;20049;-75
2024/01/25 06:21:38;;;;;;;29.27;5.38;;;;;;;7.17;100.00;101698.38;5031124;28;20037;-75
2024/01/25 06:24:08;;;;;;;31.10;5.68;;;;;;;7.13;100.00;101686.13;5054497;28;20057;-74
2024/01/25 06:26:38;;;;;;;;;;;;;;;7.21;100.00;101696.59;5049443;28;20038;-73
2024/01/25 06:29:08;;;;;;;34.00;4.93;;;;;;;7.22;100.00;101682.53;5044846;28;19932;-73
2024/01/25 06:31:48;;;;;;;34.90;5.32;;;;;;;7.13;100.00;101664.19;5037260;28;20068;-73
2024/01/25 06:34:37;;;;;;;;;;;;;;;7.18;100.00;101676.41;5036640;28;20046;-73
2024/01/25 06:37:11;;;;;;;29.77;4.90;;;;;;;7.15;100.00;101671.19;5033671;28;19921;-73
2024/01/25 06:39:43;;;;;;;26.80;5.20;;;;;;;7.02;100.00;101662.56;5038134;28;20387;-74
2024/01/25 06:42:12;;;;;;;26.15;4.80;;;;;;;7.10;100.00;101690.53;5023747;28;20045;-73
2024/01/25 06:44:44;;;;;;;26.40;4.90;;;;;;;7.04;100.00;101695.03;5026167;28;20056;-74
2024/01/25 06:47:13;;;;;;;25.65;4.68;;;;;;;6.97;100.00;101698.59;5031589;28;20522;-73
2024/01/25 06:49:41;;;;;;;24.65;4.82;;;;;;;6.86;100.00;101683.81;5037360;28;20052;-74
2024/01/25 06:52:09;;;;;;;27.77;5.20;;;;;;;6.89;100.00;101691.69;5052312;28;20049;-74
2024/01/25 06:54:37;;;;;;;27.65;4.75;;;;;;;6.90;100.00;101688.16;5033462;28;20085;-73
2024/01/25 06:57:04;;;;;;;28.60;5.10;;;;;;;6.85;100.00;101693.47;5035283;28;20041;-75
2024/01/25 06:59:34;;;;;;;39.10;4.90;;;;;;;6.73;100.00;101685.72;5047707;28;20055;-75
2024/01/25 07:02:05;;;;;;;26.92;5.03;;;;;;;6.79;100.00;101704.06;5049539;28;20108;-74
2024/01/25 07:04:34;;;;;;;24.80;4.28;;;;;;;6.74;100.00;101705.91;5038560;28;20041;-74
2024/01/25 07:07:03;;;;;;;24.77;4.78;;;;;;;6.65;100.00;101700.72;5033856;28;20037;-74
2024/01/25 07:09:33;;;;;;;;;;;;;;;6.69;100.00;101715.59;5034378;28;20209;-74
2024/01/25 07:12:01;;;;;;;34.03;5.68;;;;;;;6.60;100.00;101702.53;5038683;28;19924;-74
2024/01/25 07:14:34;;;;;;;27.33;5.05;;;;;;;6.73;100.00;101727.84;5047988;28;20061;-74
2024/01/25 07:17:05;;;;;;;26.17;4.93;;;;;;;6.74;100.00;101718.19;5036970;28;20542;-74
2024/01/25 07:19:34;;;;;;;27.83;4.90;;;;;;;6.80;100.00;101728.63;5046065;28;20128;-73
2024/01/25 07:22:05;;;;;;;17.33;4.30;;;;;;;6.83;100.00;101729.47;5026084;28;20497;-75
2024/01/25 07:24:35;;;;;;;35.83;5.82;;;;;;;6.82;100.00;101733.00;5012457;28;20560;-74
2024/01/25 07:27:16;;;;;;;25.38;4.60;;;;;;;6.86;100.00;101737.34;5030872;28;20467;-74
2024/01/25 07:29:51;;;;;;;31.40;5.53;;;;;;;6.85;100.00;101732.09;5044199;28;20081;-74
2024/01/25 07:32:36;;;;;;;32.58;5.30;;;;;;;6.80;100.00;101737.41;5020167;28;20045;-74
2024/01/25 07:35:09;;;;;;;33.70;5.95;;;;;;;6.72;100.00;101730.50;5011836;28;20065;-74
2024/01/25 07:37:40;;;;;;;35.55;5.30;;;;;;;6.72;100.00;101728.72;5038117;28;20048;-74
2024/01/25 07:40:10;;;;;;;36.58;5.63;;;;;;;6.65;100.00;101725.25;5028785;28;20180;-74
2024/01/25 07:42:38;;;;;;;28.30;5.78;;;;;;;6.65;100.00;101727.91;5004506;28;20053;-74
2024/01/25 07:45:10;;;;;;;35.20;6.10;;;;;;;6.63;100.00;101728.78;5037079;28;20045;-74
2024/01/25 07:47:45;;;;;;;29.05;6.20;;;;;;;6.62;100.00;101738.44;5027892;28;20077;-73
2024/01/25 07:50:20;;;;;;;31.15;5.40;;;;;;;6.61;100.00;101744.59;5007276;28;20053;-75
2024/01/25 07:52:49;;;;;;;28.42;5.70;;;;;;;6.70;100.00;101756.81;5019950;28;20059;-75
2024/01/25 07:55:19;;;;;;;34.10;5.50;;;;;;;6.77;100.00;101760.28;5045108;28;20086;-73
2024/01/25 07:57:51;;;;;;;25.73;5.88;;;;;;;6.79;100.00;101759.34;5034226;28;20107;-74
2024/01/25 08:00:22;;;;;;;26.50;5.40;;;;;;;6.80;100.00;101749.69;5034750;28;20084;-74
2024/01/25 08:02:52;;;;;;;41.40;6.35;;;;;;;6.84;100.00;101752.28;5039163;28;20050;-75
2024/01/25 08:05:23;;;;;;;31.45;6.47;;;;;;;6.94;100.00;101766.22;5051068;28;20060;-73
2024/01/25 08:08:08;;;;;;;28.70;5.97;;;;;;;6.97;100.00;101761.81;5047175;28;20052;-75
2024/01/25 08:10:37;;;;;;;37.85;6.55;;;;;;;7.01;100.00;101766.16;5030842;28;20042;-73
2024/01/25 08:13:06;;;;;;;30.92;5.32;;;;;;;7.01;100.00;101758.25;5042657;28;20119;-73
2024/01/25 08:15:39;;;;;;;28.73;5.55;;;;;;;7.11;100.00;101769.56;5043977;28;20470;-73
2024/01/25 08:18:11;;;;;;;26.98;5.70;;;;;;;7.21;100.00;101773.84;5028657;28;20056;-74
2024/01/25 08:20:40;;;;;;;27.75;5.50;;;;;;;7.29;100.00;101777.25;5018015;28;20041;-75
2024/01/25 08:23:14;;;;;;;30.05;5.10;;;;;;;7.55;100.00;101776.97;5031617;28;20374;-77
2024/01/25 08:25:42;;;;;;;31.80;6.32;;;;;;;7.69;100.00;101766.25;5029413;28;20065;-76
2024/01/25 08:28:12;;;;;;;26.35;5.50;;;;;;;7.86;100.00;101756.34;5038945;28;20084;-79
2024/01/25 08:30:41;;;;;;;22.05;5.50;;;;;;;7.88;100.00;101751.00;5047074;28;20029;-76
2024/01/25 08:33:12;;;;;;;24.75;5.82;;;;;;;7.75;100.00;101755.59;5043940;28;20197;-74
2024/01/25 08:35:43;;;;;;;31.13;5.68;;;;;;;7.44;100.00;101719.97;5028215;28;20049;-75
2024/01/25 08:38:14;;;;;;;35.38;6.03;;;;;;;7.45;100.00;101734.91;5035151;28;20045;-75
2024/01/25 08:40:45;;;;;;;27.80;5.85;;;;;;;7.57;100.00;101761.09;5029222;28;20076;-76
2024/01/25 08:43:16;;;;;;;28.70;5.85;;;;;;;7.68;100.00;101765.38;5031156;28;20076;-73
2024/01/25 08:45:44;;;;;;;35.42;5.50;;;;;;;7.77;100.00;101767.00;5017333;28;20053;-74
2024/01/25 08:48:14;;;;;;;27.50;5.18;;;;;;;7.86;100.00;101785.34;5016105;28;20613;-73
2024/01/25 08:50:44;;;;;;;29.17;5.93;;;;;;;7.83;100.00;101772.19;5017935;28;20144;-74
2024/01/25 08:53:16;;;;;;;30.85;6.32;;;;;;;7.88;100.00;101780.91;5023200;28;20621;-74
2024/01/25 08:55:44;;;;;;;34.63;6.28;;;;;;;7.78;100.00;101781.94;5011792;28;20038;-74
2024/01/25 08:58:15;;;;;;;27.27;5.85;;;;;;;7.69;100.00;101777.66;5037857;28;20049;-74
2024/01/25 09:00:46;;;;;;;38.05;6.70;;;;;;;7.68;100.00;101778.56;5029364;28;20052;-76
2024/01/25 09:03:16;;;;;;;30.77;6.13;;;;;;;7.72;100.00;101776.72;5027789;28;20046;-73
2024/01/25 09:05:47;;;;;;;36.58;7.43;;;;;;;7.84;100.00;101778.34;5021439;28;20126;-74
2024/01/25 09:08:19;;;;;;;36.15;6.88;;;;;;;7.99;100.00;101778.13;5038469;28;20243;-74
2024/01/25 09:10:48;;;;;;;33.17;6.15;;;;;;;8.08;100.00;101776.22;5033843;28;20049;-74
2024/01/25 09:13:20;;;;;;;30.73;5.63;;;;;;;8.17;100.00;101777.88;5032913;28;20288;-73
2024/01/25 09:15:58;;;;;;;37.83;6.32;;;;;;;8.23;100.00;101790.94;5017932;28;20045;-73
2024/01/25 09:18:31;;;;;;;30.88;6.20;;;;;;;8.24;100.00;101786.53;5024632;28;20038;-74
2024/01/25 09:21:02;;;;;;;32.45;7.18;;;;;;;8.27;100.00;101781.22;5019291;28;20041;-74
2024/01/25 09:23:31;;;;;;;29.10;6.70;;;;;;;8.42;100.00;101791.56;5023894;28;20109;-75
2024/01/25 09:26:01;;;;;;;;;;;;;;;8.37;100.00;101791.63;5014879;28;20045;-73
2024/01/25 09:28:30;;;;;;;31.23;6.65;;;;;;;8.36;100.00;101787.25;5042987;28;19990;-73
2024/01/25 09:30:58;;;;;;;32.55;5.97;;;;;;;8.34;100.00;101782.91;5020390;28;20041;-73
2024/01/25 09:33:27;;;;;;;34.97;6.05;;;;;;;8.37;100.00;101788.13;5029027;28;20048;-73
2024/01/25 09:35:59;;;;;;;34.58;6.18;;;;;;;8.34;100.00;101786.41;5041410;28;20033;-74
2024/01/25 09:38:29;;;;;;;28.73;5.85;;;;;;;8.43;100.00;101788.03;5036889;28;20050;-73
2024/01/25 09:41:02;;;;;;;29.48;5.60;;;;;;;8.52;100.00;101784.38;5043603;28;20068;-73
2024/01/25 09:43:31;;;;;;;29.77;5.57;;;;;;;8.63;100.00;101793.00;5021349;28;20073;-73
2024/01/25 09:46:10;;;;;;;35.50;7.38;;;;;;;8.72;100.00;101793.72;5020069;28;20661;-74
2024/01/25 09:48:43;;;;;;;29.83;5.80;;;;;;;8.87;100.00;101802.25;5013430;28;20077;-74
2024/01/25 09:51:20;;;;;;;25.33;5.55;;;;;;;9.14;100.00;101801.75;5003869;28;20146;-74
2024/01/25 09:53:51;;;;;;;32.47;6.63;;;;;;;9.23;100.00;101791.03;5011910;28;20053;-74
2024/01/25 09:56:21;;;;;;;33.75;5.95;;;;;;;9.27;100.00;101783.91;5029835;28;20053;-75
2024/01/25 09:58:49;;;;;;;32.03;6.53;;;;;;;9.27;100.00;101799.78;5029867;28;20063;-74
2024/01/25 10:01:19;;;;;;;30.70;6.45;;;;;;;9.24;100.00;101795.41;5029985;28;20103;-75
2024/01/25 10:03:50;;;;;;;24.15;5.15;;;;;;;9.19;100.00;101801.69;5021633;28;20048;-74
2024/01/25 10:06:21;;;;;;;33.42;6.13;;;;;;;9.21;100.00;101811.31;5045602;28;20604;-73
2024/01/25 10:08:56;;;;;;;29.45;5.80;;;;;;;9.29;100.00;101798.81;5035259;28;20052;-74
2024/01/25 10:11:25;;;;;;;26.00;5.10;;;;;;;9.41;100.00;101805.66;5031197;28;20045;-74
2024/01/25 10:13:56;;;;;;;33.55;5.80;;;;;;;9.36;100.00;101800.44;5022326;28;20048;-75
2024/01/25 10:16:24;;;;;;;22.65;5.00;;;;;;;9.29;100.00;101785.59;5031129;28;20053;-77
2024/01/25 10:18:52;;;;;;;28.77;5.60;;;;;;;9.19;100.00;101768.19;5027505;28;20041;-77
2024/01/25 10:21:23;;;;;;;27.98;5.25;;;;;;;9.38;100.00;101785.44;5025740;28;20194;-78
2024/01/25 10:23:53;;;;;;;33.27;6.77;;;;;;;9.46;100.00;101798.50;5048534;28;20041;-77
2024/01/25 10:26:24;;;;;;;29.90;5.05;;;;;;;9.46;100.00;101795.84;5047374;28;20637;-76
2024/01/25 10:28:57;;;;;;;27.63;5.35;;;;;;;9.31;100.00;101775.88;5030708;28;20058;-79
2024/01/25 10:31:33;;;;;;;31.20;6.25;;;;;;;9.30;100.00;101791.75;5035422;28;20041;-75
2024/01/25 10:34:03;;;;;;;26.80;5.80;;;;;;;9.19;100.00;101786.69;5028530;28;20052;-75
2024/01/25 10:36:37;;;;;;;31.83;5.88;;;;;;;9.18;100.00;101798.16;5029564;28;20047;-76
2024/01/25 10:39:10;;;;;;;34.60;6.38;;;;;;;9.28;100.00;101796.22;5023541;28;20056;-75
2024/01/25 10:41:42;;;;;;;36.50;5.70;;;;;;;9.44;100.00;101787.94;5030894;28;20540;-76
2024/01/25 10:44:13;;;;;;;27.25;5.70;;;;;;;9.64;100.00;101784.03;5043570;28;20446;-73
2024/01/25 10:46:43;;;;;;;30.85;6.07;;;;;;;9.90;100.00;101805.53;5047721;28;20069;-75
2024/01/25 10:49:11;;;;;;;28.13;5.70;;;;;;;10.09;100.00;101806.81;5044315;28;20037;-75
2024/01/25 10:51:43;;;;;;;28.63;5.07;;;;;;;9.91;100.00;101809.91;5029986;28;20045;-74
2024/01/25 10:54:16;;;;;;;34.22;6.40;;;;;;;9.68;100.00;101809.50;5023067;28;20592;-73
2024/01/25 10:56:49;;;;;;;28.08;5.60;;;;;;;9.63;100.00;101809.59;5037101;28;20129;-74
2024/01/25 10:59:19;;;;;;;28.00;6.20;;;;;;;9.65;100.00;101806.91;5028645;28;20045;-74
2024/01/25 11:01:49;;;;;;;33.67;6.50;;;;;;;9.60;100.00;101816.75;5030465;28;20553;-74
2024/01/25 11:04:18;;;;;;;26.08;4.45;;;;;;;9.35;100.00;101804.00;5033936;28;20061;-73
2024/01/25 11:06:49;;;;;;;27.70;5.55;;;;;;;9.35;100.00;101804.00;5031682;28;20029;-74
2024/01/25 11:09:20;;;;;;;29.65;5.60;;;;;;;9.43;100.00;101798.56;5038880;28;20033;-75
2024/01/25 11:11:50;;;;;;;29.52;5.32;;;;;;;9.48;100.00;101792.28;5034066;28;20049;-75
2024/01/25 11:14:21;;;;;;;29.98;5.35;;;;;;;9.47;100.00;101782.59;5031207;28;20609;-73
2024/01/25 11:16:49;;;;;;;31.63;6.30;;;;;;;9.61;100.00;101784.06;5022933;28;20072;-74
2024/01/25 11:19:19;;;;;;;19.83;4.43;;;;;;;9.67;100.00;101792.78;5024845;28;20049;-74
2024/01/25 11:21:51;;;;;;;22.08;4.82;;;;;;;9.70;100.00;101805.94;5040629;28;20049;-74
2024/01/25 11:24:23;;;;;;;26.17;4.43;;;;;;;9.71;100.00;101812.97;5046629;28;20042;-73
2024/01/25 11:26:52;;;;;;;25.10;5.20;;;;;;;9.67;100.00;101802.47;5027787;28;20053;-74
2024/01/25 11:29:27;;;;;;;25.63;4.75;;;;;;;9.72;100.00;101782.97;5034206;28;20486;-74
2024/01/25 11:31:58;;;;;;;36.28;5.55;;;;;;;9.95;100.00;101789.53;5035603;28;20045;-74
2024/01/25 11:34:31;;;;;;;32.72;8.15;;;;;;;10.14;100.00;101791.72;5026561;28;20075;-73